createdAt,value
2022-10-22T19:24:07.201Z,65.17
2022-10-22T19:26:33.794Z,65.26
2022-10-22T19:29:00.751Z,65.51
2022-10-22T19:31:29.936Z,65.60
2022-10-22T19:33:57.177Z,65.20
2022-10-22T19:36:25.205Z,65.69
2022-10-22T19:38:51.802Z,65.57
2022-10-22T19:41:19.823Z,65.79
2022-10-22T19:43:49.367Z,65.83
2022-10-22T19:46:16.372Z,65.98
2022-10-22T19:48:42.958Z,65.97
2022-10-22T19:51:11.254Z,66.16
2022-10-22T19:53:38.712Z,66.36
2022-10-22T19:56:07.039Z,66.67
2022-10-22T19:58:33.753Z,66.66
2022-10-22T20:01:11.441Z,66.68
2022-10-22T20:03:38.870Z,66.49
2022-10-22T20:06:07.627Z,66.94
2022-10-22T20:08:38.005Z,66.57
2022-10-22T20:11:10.687Z,66.37
2022-10-22T20:13:37.620Z,66.25
2022-10-22T20:16:05.101Z,66.76
2022-10-22T20:18:34.011Z,66.92
2022-10-22T20:21:07.670Z,66.65
2022-10-22T20:23:34.354Z,66.88
2022-10-22T20:26:00.902Z,67.07
2022-10-22T20:28:27.434Z,67.06
2022-10-22T20:30:53.941Z,67.24
2022-10-22T20:33:20.506Z,67.11
2022-10-22T20:35:47.066Z,67.18
2022-10-22T20:38:14.701Z,67.19
2022-10-22T20:40:41.469Z,66.96
2022-10-22T20:43:10.539Z,66.84
2022-10-22T20:45:38.846Z,67.50
2022-10-22T20:48:06.008Z,67.29
2022-10-22T20:50:32.830Z,67.35
2022-10-22T20:52:59.721Z,67.13
2022-10-22T20:55:26.555Z,67.22
2022-10-22T20:57:53.025Z,67.24
2022-10-22T21:00:19.584Z,67.39
2022-10-22T21:02:46.193Z,67.39
2022-10-22T21:05:12.686Z,67.47
2022-10-22T21:07:39.391Z,67.60
2022-10-22T21:10:06.493Z,67.73
2022-10-22T21:12:32.989Z,67.49
2022-10-22T21:14:59.548Z,67.52
2022-10-22T21:17:26.033Z,67.77
2022-10-22T21:19:52.554Z,67.56
2022-10-22T21:22:19.059Z,67.59
2022-10-22T21:24:45.543Z,67.52
2022-10-22T21:27:12.073Z,67.57
2022-10-22T21:29:38.713Z,67.52
2022-10-22T21:32:05.389Z,67.66
2022-10-22T21:34:36.727Z,67.48
2022-10-22T21:37:05.458Z,67.70
2022-10-22T21:39:31.959Z,67.60
2022-10-22T21:41:58.466Z,67.52
2022-10-22T21:44:24.987Z,67.60
2022-10-22T21:46:51.481Z,67.32
2022-10-22T21:49:18.124Z,67.54
2022-10-22T21:51:44.724Z,67.53
2022-10-22T21:54:12.541Z,67.34
2022-10-22T21:56:39.434Z,67.37
2022-10-22T21:59:06.593Z,67.55
2022-10-22T22:01:33.305Z,67.43
2022-10-22T22:03:59.898Z,67.53
2022-10-22T22:06:30.804Z,67.54
2022-10-22T22:08:59.583Z,67.55
2022-10-22T22:11:27.942Z,67.48
2022-10-22T22:13:55.537Z,67.63
2022-10-22T22:16:27.275Z,67.55
2022-10-22T22:18:56.800Z,67.60
2022-10-22T22:21:23.372Z,67.50
2022-10-22T22:23:50.731Z,67.43
2022-10-22T22:26:25.273Z,67.47
2022-10-22T22:28:55.387Z,67.45
2022-10-22T22:31:25.332Z,67.56
2022-10-22T22:33:57.642Z,67.50
2022-10-22T22:36:24.109Z,67.42
2022-10-22T22:38:55.182Z,67.48
2022-10-22T22:41:21.797Z,67.21
2022-10-22T22:43:48.282Z,67.11
2022-10-22T22:46:14.830Z,67.27
2022-10-22T22:48:41.323Z,67.34
2022-10-22T22:51:08.054Z,67.22
2022-10-22T22:53:34.777Z,67.25
2022-10-22T22:56:11.305Z,67.03
2022-10-22T22:58:40.411Z,67.03
2022-10-22T23:01:20.517Z,67.17
2022-10-22T23:03:52.274Z,67.26
2022-10-22T23:06:18.767Z,67.17
2022-10-22T23:08:49.453Z,67.16
2022-10-22T23:11:16.041Z,67.18
2022-10-22T23:13:42.952Z,66.99
2022-10-22T23:16:13.974Z,67.17
2022-10-22T23:18:40.787Z,67.14
2022-10-22T23:21:12.321Z,67.06
2022-10-22T23:23:38.804Z,66.90
2022-10-22T23:26:05.397Z,67.13
2022-10-22T23:28:31.915Z,66.65
2022-10-22T23:30:58.533Z,67.13
2022-10-22T23:33:24.993Z,66.85
2022-10-22T23:35:51.480Z,67.16
2022-10-22T23:38:17.957Z,66.94
2022-10-22T23:40:44.483Z,66.97
2022-10-22T23:43:11.009Z,66.87
2022-10-22T23:45:37.536Z,67.12
2022-10-22T23:48:04.196Z,66.93
2022-10-22T23:50:30.724Z,66.90
2022-10-22T23:52:57.220Z,66.97
2022-10-22T23:55:23.722Z,66.83
2022-10-22T23:57:50.248Z,67.05
